createdAt,value
2022-08-01T00:00:51.269Z,34.20
2022-08-01T00:03:19.034Z,33.92
2022-08-01T00:05:47.554Z,34.90
2022-08-01T00:08:15.333Z,28.70
2022-08-01T00:10:44.441Z,25.33
2022-08-01T00:13:12.285Z,31.83
2022-08-01T00:15:40.051Z,32.28
2022-08-01T00:18:07.979Z,29.05
2022-08-01T00:20:35.731Z,29.40
2022-08-01T00:23:04.323Z,31.52
2022-08-01T00:25:33.690Z,29.65
2022-08-01T00:28:04.085Z,30.65
2022-08-01T00:30:32.580Z,29.88
2022-08-01T00:33:00.406Z,32.03
2022-08-01T00:35:28.237Z,34.92
2022-08-01T00:37:56.043Z,31.40
2022-08-01T00:40:24.092Z,29.98
2022-08-01T00:42:52.058Z,32.42
2022-08-01T00:45:21.165Z,29.60
2022-08-01T00:47:49.232Z,33.38
2022-08-01T00:50:23.148Z,28.95
2022-08-01T00:52:52.989Z,28.65
2022-08-01T00:55:21.050Z,30.08
2022-08-01T00:58:02.315Z,27.25
2022-08-01T01:00:52.757Z,25.20
2022-08-01T01:03:37.910Z,27.50
2022-08-01T01:06:19.958Z,26.23
2022-08-01T01:08:54.296Z,25.40
2022-08-01T01:11:28.761Z,22.75
2022-08-01T01:14:03.466Z,25.98
2022-08-01T01:16:33.120Z,24.75
2022-08-01T01:19:04.767Z,23.33
2022-08-01T01:22:02.679Z,26.13
2022-08-01T01:24:38.549Z,26.23
2022-08-01T01:27:13.057Z,23.48
2022-08-01T01:29:58.498Z,33.35
2022-08-01T01:32:34.264Z,26.33
2022-08-01T01:35:04.671Z,29.77
2022-08-01T01:37:34.133Z,26.60
2022-08-01T01:40:03.680Z,31.83
2022-08-01T01:42:32.689Z,31.38
2022-08-01T01:45:02.586Z,32.30
2022-08-01T01:47:31.562Z,29.08
2022-08-01T01:50:00.365Z,28.33
2022-08-01T01:52:28.428Z,26.75
2022-08-01T01:54:56.360Z,20.98
2022-08-01T01:57:24.989Z,28.38
2022-08-01T01:59:53.220Z,33.20
2022-08-01T02:02:24.499Z,20.60
2022-08-01T02:04:53.483Z,19.67
2022-08-01T02:07:23.570Z,21.92
2022-08-01T02:09:53.610Z,23.52
2022-08-01T02:12:23.100Z,19.60
2022-08-01T02:14:53.236Z,21.65
2022-08-01T02:17:23.197Z,25.58
2022-08-01T02:19:51.041Z,23.00
2022-08-01T02:22:22.125Z,22.05
2022-08-01T02:24:53.069Z,23.73
2022-08-01T02:27:27.300Z,21.90
2022-08-01T02:29:59.339Z,19.77
2022-08-01T02:32:33.477Z,22.30
2022-08-01T02:35:03.134Z,24.58
2022-08-01T02:37:33.890Z,21.25
2022-08-01T02:40:02.160Z,23.48
2022-08-01T02:42:30.840Z,22.73
2022-08-01T02:44:59.390Z,22.33
2022-08-01T02:47:30.088Z,22.30
2022-08-01T02:49:58.057Z,27.92
2022-08-01T02:52:27.471Z,20.33
2022-08-01T02:54:57.013Z,20.20
2022-08-01T02:57:29.560Z,23.27
2022-08-01T03:00:13.407Z,22.70
2022-08-01T03:02:44.101Z,21.60
2022-08-01T03:05:12.465Z,22.75
2022-08-01T03:07:40.782Z,26.40
2022-08-01T03:10:11.114Z,27.05
2022-08-01T03:12:39.919Z,23.17
2022-08-01T03:15:09.241Z,25.35
2022-08-01T03:17:38.569Z,25.48
2022-08-01T03:20:09.631Z,23.58
2022-08-01T03:22:38.572Z,25.98
2022-08-01T03:25:07.964Z,24.80
2022-08-01T03:27:37.212Z,24.50
2022-08-01T03:30:06.661Z,24.30
2022-08-01T03:32:34.632Z,22.15
2022-08-01T03:35:02.716Z,26.02
2022-08-01T03:37:35.688Z,26.33
2022-08-01T03:40:07.204Z,22.75
2022-08-01T03:42:37.703Z,24.17
2022-08-01T03:45:10.067Z,20.33
2022-08-01T03:47:45.034Z,22.30
2022-08-01T03:50:14.433Z,19.23
2022-08-01T03:52:45.789Z,23.02
2022-08-01T03:55:14.054Z,25.50
2022-08-01T03:57:41.947Z,21.38
2022-08-01T04:00:10.622Z,25.05
2022-08-01T04:02:42.078Z,18.60
2022-08-01T04:05:10.554Z,21.48
2022-08-01T04:07:40.085Z,22.80
2022-08-01T04:10:09.643Z,21.95
2022-08-01T04:12:37.724Z,19.65
2022-08-01T04:15:07.117Z,21.17
2022-08-01T04:17:34.852Z,17.95
2022-08-01T04:20:02.607Z,18.77
2022-08-01T04:22:31.544Z,17.75
2022-08-01T04:24:59.758Z,15.85
2022-08-01T04:27:49.091Z,16.98
2022-08-01T04:30:21.540Z,18.25
2022-08-01T04:32:50.752Z,17.17
2022-08-01T04:35:22.449Z,16.70
2022-08-01T04:38:09.684Z,20.13
2022-08-01T04:40:37.969Z,14.20
2022-08-01T04:43:07.280Z,14.93
2022-08-01T04:45:35.682Z,13.93
2022-08-01T04:48:03.797Z,12.93
2022-08-01T04:50:32.755Z,13.52
2022-08-01T04:53:00.553Z,13.52
2022-08-01T04:55:28.458Z,11.38
2022-08-01T04:57:56.464Z,12.88
2022-08-01T05:00:25.716Z,11.43
2022-08-01T05:02:53.456Z,11.57
2022-08-01T05:05:21.861Z,11.13
2022-08-01T05:07:49.589Z,10.23
2022-08-01T05:10:17.373Z,11.55
2022-08-01T05:12:45.086Z,11.52
2022-08-01T05:15:15.551Z,10.85
2022-08-01T05:17:45.028Z,11.27
2022-08-01T05:20:13.511Z,11.43
2022-08-01T05:22:41.432Z,11.13
2022-08-01T05:25:09.805Z,11.70
2022-08-01T05:27:40.547Z,12.68
2022-08-01T05:30:10.146Z,12.93
2022-08-01T05:32:39.011Z,11.18
2022-08-01T05:35:09.677Z,11.05
2022-08-01T05:37:37.515Z,10.73
2022-08-01T05:40:06.551Z,12.88
2022-08-01T05:42:34.343Z,10.65
2022-08-01T05:45:02.601Z,9.20
2022-08-01T05:47:31.117Z,11.75
2022-08-01T05:49:59.552Z,10.02
2022-08-01T05:52:29.581Z,9.57
2022-08-01T05:54:57.333Z,12.70
2022-08-01T05:57:25.279Z,10.38
2022-08-01T05:59:53.015Z,10.25
2022-08-01T06:02:20.828Z,14.15
2022-08-01T06:04:48.635Z,13.10
2022-08-01T06:07:16.339Z,10.30
2022-08-01T06:09:45.444Z,12.25
2022-08-01T06:12:13.266Z,13.35
2022-08-01T06:14:41.844Z,10.02
2022-08-01T06:17:09.604Z,11.65
2022-08-01T06:19:37.632Z,9.13
2022-08-01T06:22:05.683Z,11.68
2022-08-01T06:24:33.554Z,8.35
2022-08-01T06:27:03.989Z,9.52
2022-08-01T06:29:51.126Z,8.65
2022-08-01T06:32:26.806Z,11.27
2022-08-01T06:34:56.227Z,10.35
2022-08-01T06:37:24.380Z,11.82
2022-08-01T06:39:52.365Z,10.50
2022-08-01T06:42:21.555Z,8.65
2022-08-01T06:44:49.287Z,9.73
2022-08-01T06:47:17.141Z,11.25
2022-08-01T06:49:45.248Z,11.95
2022-08-01T06:52:13.049Z,8.98
2022-08-01T06:54:40.790Z,10.18
2022-08-01T06:57:08.645Z,14.20
2022-08-01T06:59:38.025Z,14.95
2022-08-01T07:02:06.125Z,10.80
2022-08-01T07:04:34.311Z,17.08
2022-08-01T07:07:02.225Z,13.43
2022-08-01T07:09:30.355Z,16.83
2022-08-01T07:11:58.307Z,15.10
2022-08-01T07:14:26.368Z,11.50
2022-08-01T07:16:55.549Z,15.93
2022-08-01T07:19:23.293Z,16.05
2022-08-01T07:21:51.045Z,20.08
2022-08-01T07:24:20.902Z,14.57
2022-08-01T07:26:53.154Z,10.85
2022-08-01T07:29:23.052Z,8.55
2022-08-01T07:31:52.283Z,14.77
2022-08-01T07:34:21.453Z,13.25
2022-08-01T07:36:49.145Z,14.02
2022-08-01T07:39:16.901Z,18.35
2022-08-01T07:41:52.786Z,11.50
2022-08-01T07:44:32.580Z,11.00
2022-08-01T07:47:00.641Z,14.00
2022-08-01T07:49:30.403Z,10.85
2022-08-01T07:52:03.867Z,18.25
2022-08-01T07:54:41.436Z,12.90
2022-08-01T07:57:09.465Z,11.65
2022-08-01T07:59:37.559Z,13.07
2022-08-01T08:02:05.885Z,14.20
2022-08-01T08:04:35.475Z,11.90
2022-08-01T08:07:03.658Z,16.27
2022-08-01T08:09:31.773Z,19.20
2022-08-01T08:12:07.595Z,16.50
2022-08-01T08:14:35.787Z,21.08
2022-08-01T08:17:04.574Z,18.02
2022-08-01T08:19:37.697Z,19.88
2022-08-01T08:22:08.794Z,10.82
2022-08-01T08:24:37.134Z,10.85
2022-08-01T08:27:14.214Z,12.13
2022-08-01T08:29:42.765Z,12.23
2022-08-01T08:32:10.919Z,12.80
2022-08-01T08:34:38.920Z,15.13
2022-08-01T08:37:08.249Z,9.75
2022-08-01T08:39:41.572Z,5.32
2022-08-01T08:42:11.169Z,7.22
2022-08-01T08:44:43.382Z,5.03
2022-08-01T08:47:18.737Z,6.15
2022-08-01T08:49:49.308Z,4.63
2022-08-01T08:52:20.155Z,5.53
2022-08-01T08:54:49.089Z,5.95
2022-08-01T08:57:17.246Z,5.20
2022-08-01T08:59:45.592Z,7.43
2022-08-01T09:02:14.510Z,6.43
2022-08-01T09:04:42.721Z,6.65
2022-08-01T09:07:12.263Z,6.43
2022-08-01T09:09:41.921Z,7.03
2022-08-01T09:12:11.000Z,8.85
2022-08-01T09:14:46.863Z,6.15
2022-08-01T09:17:15.256Z,6.32
2022-08-01T09:19:44.822Z,11.27
2022-08-01T09:22:14.534Z,6.53
2022-08-01T09:24:43.819Z,7.07
2022-08-01T09:27:22.359Z,6.30
2022-08-01T09:30:01.415Z,7.38
2022-08-01T09:32:35.316Z,6.47
2022-08-01T09:35:30.871Z,8.75
2022-08-01T09:38:17.017Z,9.77
2022-08-01T09:40:51.457Z,9.43
2022-08-01T09:43:20.265Z,9.30
2022-08-01T09:45:50.859Z,8.52
2022-08-01T09:48:22.832Z,8.85
2022-08-01T09:51:04.113Z,8.82
2022-08-01T09:53:51.372Z,8.90
2022-08-01T09:56:23.875Z,9.45
2022-08-01T09:59:00.007Z,8.80
2022-08-01T10:01:36.614Z,8.55
2022-08-01T10:04:12.798Z,10.70
2022-08-01T10:06:43.547Z,10.23
2022-08-01T10:09:12.168Z,8.85
2022-08-01T10:11:44.777Z,7.57
2022-08-01T10:14:18.334Z,9.00
2022-08-01T10:16:53.834Z,7.72
2022-08-01T10:19:25.682Z,7.68
2022-08-01T10:21:59.387Z,8.68
2022-08-01T10:24:30.193Z,7.60
2022-08-01T10:27:05.919Z,7.13
2022-08-01T10:29:59.863Z,7.38
2022-08-01T10:32:29.029Z,8.00
2022-08-01T10:34:57.518Z,7.22
2022-08-01T10:37:27.167Z,7.35
2022-08-01T10:40:08.834Z,7.10
2022-08-01T10:42:46.679Z,7.90
2022-08-01T10:45:16.733Z,7.30
2022-08-01T10:48:00.104Z,8.45
2022-08-01T10:50:33.771Z,7.45
2022-08-01T10:53:24.426Z,6.95
2022-08-01T10:56:02.701Z,6.43
2022-08-01T10:58:39.541Z,7.47
2022-08-01T11:01:18.041Z,7.50
2022-08-01T11:04:01.431Z,7.57
2022-08-01T11:06:39.219Z,7.30
2022-08-01T11:09:17.830Z,7.50
2022-08-01T11:12:00.987Z,7.38
2022-08-01T11:14:46.708Z,7.28
2022-08-01T11:17:37.435Z,7.88
2022-08-01T11:20:11.214Z,6.88
2022-08-01T11:23:29.702Z,7.25
2022-08-01T11:26:11.783Z,7.80
2022-08-01T11:28:44.504Z,6.45
2022-08-01T11:31:30.017Z,6.93
2022-08-01T11:34:04.933Z,7.05
2022-08-01T11:36:57.491Z,7.03
2022-08-01T11:39:20.682Z,7.15
2022-08-01T11:41:49.848Z,6.85
2022-08-01T11:44:24.835Z,6.57
2022-08-01T11:47:09.520Z,6.55
2022-08-01T11:49:58.776Z,6.57
2022-08-01T11:52:28.012Z,7.10
2022-08-01T11:54:57.202Z,6.70
2022-08-01T11:57:34.693Z,6.90
2022-08-01T12:00:08.459Z,7.30
2022-08-01T12:02:45.692Z,6.90
2022-08-01T12:05:15.385Z,7.20
2022-08-01T12:07:44.558Z,6.93
2022-08-01T12:10:13.975Z,7.45
2022-08-01T12:12:45.332Z,7.15
2022-08-01T12:15:13.981Z,7.25
2022-08-01T12:17:47.056Z,6.82
2022-08-01T12:20:30.235Z,7.35
2022-08-01T12:22:59.379Z,7.03
2022-08-01T12:25:27.217Z,6.95
2022-08-01T12:27:56.848Z,7.03
2022-08-01T12:30:25.976Z,6.95
2022-08-01T12:32:55.977Z,7.28
2022-08-01T12:35:25.692Z,6.90
2022-08-01T12:37:55.056Z,7.75
2022-08-01T12:40:24.100Z,7.63
2022-08-01T12:42:53.692Z,7.30
2022-08-01T12:45:23.978Z,7.32
2022-08-01T12:47:52.629Z,7.53
2022-08-01T12:50:23.353Z,7.78
2022-08-01T12:52:51.618Z,7.82
2022-08-01T12:55:21.004Z,8.30
2022-08-01T12:57:51.814Z,7.65
2022-08-01T13:00:23.041Z,7.47
2022-08-01T13:02:52.285Z,7.88
2022-08-01T13:05:20.289Z,8.05
2022-08-01T13:07:51.343Z,7.40
2022-08-01T13:10:28.150Z,8.05
2022-08-01T13:12:57.664Z,7.50
2022-08-01T13:15:29.011Z,8.60
2022-08-01T13:17:57.050Z,10.50
2022-08-01T13:20:30.759Z,9.75
2022-08-01T13:23:15.225Z,10.20
2022-08-01T13:25:53.849Z,9.35
2022-08-01T13:28:23.817Z,9.25
2022-08-01T13:30:56.689Z,9.13
2022-08-01T13:33:24.869Z,9.48
2022-08-01T13:35:54.110Z,9.27
2022-08-01T13:38:43.889Z,9.45
2022-08-01T13:41:12.367Z,9.63
2022-08-01T13:43:57.969Z,9.02
2022-08-01T13:46:29.609Z,8.70
2022-08-01T13:48:57.691Z,8.45
2022-08-01T13:51:33.527Z,7.82
2022-08-01T13:54:03.358Z,8.50
2022-08-01T13:56:31.356Z,9.13
2022-08-01T13:58:59.224Z,8.25
2022-08-01T14:01:29.994Z,8.15
2022-08-01T14:04:01.708Z,7.93
2022-08-01T14:06:29.995Z,7.90
2022-08-01T14:08:57.928Z,9.05
2022-08-01T14:11:30.425Z,7.57
2022-08-01T14:14:01.715Z,8.63
2022-08-01T14:16:30.311Z,8.15
2022-08-01T14:18:58.187Z,8.05
2022-08-01T14:21:26.303Z,8.00
2022-08-01T14:23:54.154Z,7.80
2022-08-01T14:26:22.042Z,7.45
2022-08-01T14:28:51.338Z,7.97
2022-08-01T14:31:19.107Z,7.93
2022-08-01T14:33:46.974Z,8.05
2022-08-01T14:36:30.479Z,7.95
2022-08-01T14:39:00.481Z,8.20
2022-08-01T14:41:28.683Z,7.25
2022-08-01T14:44:00.781Z,7.50
2022-08-01T14:46:28.852Z,7.00
2022-08-01T14:48:59.719Z,7.18
2022-08-01T14:51:27.581Z,7.93
2022-08-01T14:53:56.767Z,7.75
2022-08-01T14:56:25.261Z,6.20
2022-08-01T14:58:53.034Z,5.75
2022-08-01T15:01:22.280Z,5.22
2022-08-01T15:03:51.518Z,5.75
2022-08-01T15:06:19.363Z,5.97
2022-08-01T15:08:47.381Z,5.55
2022-08-01T15:11:15.312Z,9.50
2022-08-01T15:13:43.165Z,5.78
2022-08-01T15:16:12.011Z,6.53
2022-08-01T15:18:42.915Z,5.97
2022-08-01T15:21:14.531Z,6.45
2022-08-01T15:23:48.710Z,5.95
2022-08-01T15:26:16.821Z,5.97
2022-08-01T15:28:45.331Z,5.88
2022-08-01T15:31:14.353Z,6.15
2022-08-01T15:33:43.866Z,5.68
2022-08-01T15:36:12.440Z,7.68
2022-08-01T15:38:43.330Z,7.32
2022-08-01T15:41:11.178Z,6.93
2022-08-01T15:43:44.103Z,7.13
2022-08-01T15:46:13.056Z,7.45
2022-08-01T15:48:42.980Z,7.30
2022-08-01T15:51:10.883Z,7.30
2022-08-01T15:53:38.673Z,8.18
2022-08-01T15:56:06.989Z,7.80
2022-08-01T15:58:34.948Z,7.18
2022-08-01T16:01:02.742Z,8.70
2022-08-01T16:03:30.580Z,7.07
2022-08-01T16:05:59.713Z,7.85
2022-08-01T16:08:27.454Z,7.10
2022-08-01T16:10:55.175Z,6.60
2022-08-01T16:13:22.910Z,7.00
2022-08-01T16:15:50.785Z,7.32
2022-08-01T16:18:18.690Z,7.88
2022-08-01T16:20:46.508Z,6.70
2022-08-01T16:23:16.451Z,6.93
2022-08-01T16:25:45.251Z,6.93
2022-08-01T16:28:13.966Z,6.43
2022-08-01T16:30:48.714Z,7.47
2022-08-01T16:33:47.521Z,6.47
2022-08-01T16:36:18.444Z,6.97
2022-08-01T16:38:48.635Z,6.63
2022-08-01T16:41:19.831Z,6.22
2022-08-01T16:43:53.847Z,7.45
2022-08-01T16:46:24.717Z,6.63
2022-08-01T16:48:52.596Z,6.22
2022-08-01T16:51:20.842Z,6.65
2022-08-01T16:53:50.004Z,6.05
2022-08-01T16:56:17.982Z,5.97
2022-08-01T16:58:46.144Z,6.05
2022-08-01T17:01:58.084Z,6.30
2022-08-01T17:04:02.169Z,6.65
2022-08-01T17:06:30.480Z,6.00
2022-08-01T17:08:59.778Z,6.28
2022-08-01T17:11:27.781Z,15.32
2022-08-01T17:13:55.888Z,8.02
2022-08-01T17:16:23.953Z,4.88
2022-08-01T17:18:51.699Z,4.50
2022-08-01T17:21:19.425Z,5.60
2022-08-01T17:23:47.265Z,4.82
2022-08-01T17:26:16.747Z,4.35
2022-08-01T17:28:44.728Z,5.88
2022-08-01T17:31:12.552Z,8.95
2022-08-01T17:33:45.088Z,4.43
2022-08-01T17:36:17.561Z,4.68
2022-08-01T17:38:45.722Z,5.25
2022-08-01T17:41:13.729Z,4.78
2022-08-01T17:43:43.213Z,5.93
2022-08-01T17:46:11.137Z,3.92
2022-08-01T17:48:39.069Z,4.70
2022-08-01T17:51:07.365Z,5.50
2022-08-01T17:53:35.766Z,5.18
2022-08-01T17:56:05.672Z,4.28
2022-08-01T17:58:51.038Z,4.38
2022-08-01T18:01:21.647Z,6.00
2022-08-01T18:03:54.742Z,6.13
2022-08-01T18:06:23.354Z,5.55
2022-08-01T18:08:55.257Z,5.43
2022-08-01T18:11:27.219Z,5.65
2022-08-01T18:13:56.308Z,7.88
2022-08-01T18:16:25.660Z,6.28
2022-08-01T18:18:53.428Z,5.88
2022-08-01T18:21:21.444Z,6.15
2022-08-01T18:23:51.235Z,5.93
2022-08-01T18:26:20.472Z,6.43
2022-08-01T18:28:48.237Z,6.82
2022-08-01T18:31:19.733Z,8.10
2022-08-01T18:33:49.240Z,11.63
2022-08-01T18:36:32.129Z,10.13
2022-08-01T18:39:04.316Z,10.52
2022-08-01T18:41:32.909Z,10.50
2022-08-01T18:44:05.475Z,11.07
2022-08-01T18:46:35.867Z,11.00
2022-08-01T18:49:06.119Z,8.85
2022-08-01T18:51:34.017Z,8.98
2022-08-01T18:54:01.934Z,8.45
2022-08-01T18:56:29.730Z,8.68
2022-08-01T18:58:57.596Z,10.27
2022-08-01T19:01:25.728Z,10.65
2022-08-01T19:03:53.785Z,9.45
2022-08-01T19:06:23.047Z,14.10
2022-08-01T19:08:50.985Z,7.43
2022-08-01T19:11:18.814Z,8.30
2022-08-01T19:13:46.850Z,7.40
2022-08-01T19:16:16.440Z,8.75
2022-08-01T19:18:44.468Z,9.02
2022-08-01T19:21:14.176Z,8.48
2022-08-01T19:24:00.930Z,8.45
2022-08-01T19:26:29.020Z,5.97
2022-08-01T19:28:59.912Z,7.07
2022-08-01T19:31:28.994Z,7.93
2022-08-01T19:33:58.444Z,5.63
2022-08-01T19:36:26.881Z,5.63
2022-08-01T19:38:57.336Z,5.50
2022-08-01T19:41:25.164Z,5.85
2022-08-01T19:43:53.264Z,6.55
2022-08-01T19:46:21.067Z,5.25
2022-08-01T19:48:54.083Z,7.50
2022-08-01T19:51:33.629Z,10.90
2022-08-01T19:54:06.445Z,4.78
2022-08-01T19:56:40.464Z,5.80
2022-08-01T19:59:09.332Z,4.60
2022-08-01T20:01:38.110Z,4.82
2022-08-01T20:04:06.245Z,4.20
2022-08-01T20:06:35.249Z,5.60
2022-08-01T20:09:05.541Z,4.53
2022-08-01T20:11:33.352Z,4.25
2022-08-01T20:14:02.043Z,3.95
2022-08-01T20:16:32.441Z,7.90
2022-08-01T20:19:02.527Z,5.05
2022-08-01T20:21:30.769Z,5.18
2022-08-01T20:24:02.976Z,6.82
2022-08-01T20:26:32.850Z,9.15
2022-08-01T20:29:01.552Z,8.77
2022-08-01T20:31:33.993Z,6.80
2022-08-01T20:34:15.946Z,5.78
2022-08-01T20:36:54.462Z,6.35
2022-08-01T20:39:24.813Z,4.93
2022-08-01T20:42:00.147Z,8.02
2022-08-01T20:44:31.467Z,5.63
2022-08-01T20:47:00.025Z,4.10
2022-08-01T20:49:28.311Z,7.43
2022-08-01T20:51:56.518Z,3.85
2022-08-01T20:54:24.281Z,5.93
2022-08-01T20:56:59.460Z,9.30
2022-08-01T20:59:39.906Z,6.07
2022-08-01T21:02:31.873Z,7.18
2022-08-01T21:05:04.681Z,2.85
2022-08-01T21:07:34.876Z,2.88
2022-08-01T21:10:07.012Z,5.15
2022-08-01T21:12:43.643Z,5.05
2022-08-01T21:15:16.182Z,5.88
2022-08-01T21:17:46.411Z,7.43
2022-08-01T21:20:15.848Z,4.72
2022-08-01T21:22:53.805Z,6.95
2022-08-01T21:25:25.529Z,6.47
2022-08-01T21:27:55.998Z,3.50
2022-08-01T21:30:25.005Z,4.93
2022-08-01T21:32:53.161Z,3.38
2022-08-01T21:35:23.316Z,4.95
2022-08-01T21:37:52.604Z,5.65
2022-08-01T21:40:22.547Z,10.05
2022-08-01T21:42:52.495Z,5.15
2022-08-01T21:45:23.921Z,6.18
2022-08-01T21:47:52.445Z,7.22
2022-08-01T21:50:20.568Z,8.98
2022-08-01T21:52:50.392Z,7.57
2022-08-01T21:55:34.921Z,6.68
2022-08-01T21:58:14.571Z,8.45
2022-08-01T22:00:46.442Z,6.75
2022-08-01T22:03:22.164Z,6.65
2022-08-01T22:05:52.486Z,10.85
2022-08-01T22:08:26.424Z,10.00
2022-08-01T22:10:58.369Z,12.60
2022-08-01T22:13:26.274Z,13.55
2022-08-01T22:15:57.073Z,16.67
2022-08-01T22:18:27.121Z,14.18
2022-08-01T22:20:55.317Z,13.88
2022-08-01T22:23:23.669Z,12.68
2022-08-01T22:25:52.951Z,10.75
2022-08-01T22:28:21.824Z,10.40
2022-08-01T22:30:51.571Z,8.90
2022-08-01T22:33:21.618Z,8.65
2022-08-01T22:35:51.034Z,9.23
2022-08-01T22:38:20.678Z,6.30
2022-08-01T22:40:50.767Z,6.57
2022-08-01T22:43:26.048Z,6.47
2022-08-01T22:46:01.367Z,6.15
2022-08-01T22:48:34.958Z,6.32
2022-08-01T22:51:07.060Z,6.28
2022-08-01T22:53:41.022Z,7.00
2022-08-01T22:56:10.796Z,8.02
2022-08-01T22:58:41.124Z,6.75
2022-08-01T23:01:11.768Z,7.75
2022-08-01T23:03:41.923Z,6.47
2022-08-01T23:06:12.156Z,7.95
2022-08-01T23:08:41.470Z,7.68
2022-08-01T23:11:09.288Z,6.22
2022-08-01T23:13:37.084Z,6.28
2022-08-01T23:16:05.758Z,8.93
2022-08-01T23:18:33.628Z,10.48
2022-08-01T23:21:03.622Z,6.30
2022-08-01T23:23:32.374Z,6.30
2022-08-01T23:26:01.281Z,10.32
2022-08-01T23:28:29.653Z,9.02
2022-08-01T23:30:57.521Z,6.97
2022-08-01T23:33:25.436Z,6.82
2022-08-01T23:35:53.256Z,7.47
2022-08-01T23:38:22.586Z,7.35
2022-08-01T23:40:50.944Z,9.52
2022-08-01T23:43:18.978Z,8.35
2022-08-01T23:46:04.637Z,8.98
2022-08-01T23:48:34.026Z,9.65
2022-08-01T23:51:02.075Z,10.10
2022-08-01T23:53:31.579Z,9.13
2022-08-01T23:56:01.710Z,10.07
2022-08-01T23:58:31.067Z,9.27
